Sanko Independence — A8QJ9 — position and weather

sailwx.info

Track history (hours):
 
Tides and Currents Weather Stations Pressure Air Temp Water Temp Dewpoint Dewpoint Depression Visibility Wind Speed Wind Dir Waves Ship Positions

Sanko Independence

Last reported at 2014-Dec-20 11:13 UTC. Time now 2014-Dec-20 21:33 UTC.
Position N 36°38' E 023°37'.

Length 174 m; draft 10.5 m.

Type: Ship (hazmat cat C). MMSI: 636013946.

Date/timePositionNaut miles runAvg speedWind from/ knotsBaromVisibWave heightAir tempDewpointWater temp
2014-Dec-20 11:13N 36°38' E 023°37'913.9
2014-Dec-20 10:34N 36°45' E 023°44'1413.9
2014-Dec-20 09:33N 36°57' E 023°54'1414.2
2014-Dec-20 08:33N 37°09' E 024°04'1414.1
2014-Dec-20 07:33N 37°21' E 024°13'1414.1
2014-Dec-20 06:33N 37°32' E 024°23'1514.4
2014-Dec-20 05:32N 37°45' E 024°32'2914.5
2014-Dec-20 03:33N 38°12' E 024°45'6314.4
2014-Dec-19 23:10N 39°08' E 025°21'3014.6
2014-Dec-19 21:05N 39°36' E 025°38'814.3
2014-Dec-19 20:33N 39°43' E 025°42'1513.9
2014-Dec-19 19:29N 39°56' E 025°53'4013.4
2014-Dec-19 16:28N 40°19' E 026°36'1111.3
2014-Dec-19 15:29N 40°26' E 026°46'86 6.0
2014-Dec-19 01:08N 40°52' E 028°35'814.1
2014-Dec-19 00:32N 40°53' E 028°46'1110.9
2014-Dec-18 23:33N 40°58' E 028°59'1111.0
2014-Dec-18 22:33N 41°09' E 029°04'9 9.2
2014-Dec-18 21:33N 41°17' E 029°08'7 7.4
2014-Dec-18 20:33N 41°24' E 029°07'1 0.6
2014-Dec-18 19:23N 41°25' E 029°07'30910.7
2014-Dec-17 14:33N 46°24' E 030°55'9 0.4
2014-Dec-16 13:11N 46°33' E 030°60'2 0.1
2014-Dec-15 20:28N 46°32' E 030°59'0 0.5
2014-Dec-15 19:33N 46°32' E 030°59'1010.5
2014-Dec-15 18:33N 46°22' E 030°57'1514.3
2014-Dec-15 17:31N 46°09' E 031°08'1414.8
2014-Dec-15 16:33N 45°55' E 031°11'27614.5
2014-Dec-14 21:33N 41°30' E 029°21'1515.2
2014-Dec-14 20:33N 41°17' E 029°11'  
2014-Dec-12 06:23N 37°55' E 025°36'1315.4
2014-Dec-12 05:33N 37°43' E 025°42'1615.9
2014-Dec-12 04:33N 37°28' E 025°50'1515.1
2014-Dec-12 03:33N 37°19' E 026°05'1414.0
2014-Dec-12 02:33N 37°11' E 026°20'1615.6
2014-Dec-12 01:32N 37°03' E 026°37'1715.9
2014-Dec-12 00:28N 36°47' E 026°42'1516.0
2014-Dec-11 23:31N 36°32' E 026°48'1615.9
2014-Dec-11 22:33N 36°19' E 026°57'25614.7
2014-Dec-11 05:06N 35°48' E 032°12'  
Track history (hours):
 
Tides and Currents Weather Stations Pressure Air Temp Water Temp Dewpoint Dewpoint Depression Visibility Wind Speed Wind Dir Waves Ship Positions

Sanko Independence

Last reported at 2014-Dec-20 11:13 UTC. Time now 2014-Dec-20 21:33 UTC.
Position N 36°38' E 023°37'.

Length 174 m; draft 10.5 m.

Type: Ship (hazmat cat C). MMSI: 636013946.

Date/timePositionNaut miles runAvg speedWind from/ knotsBaromVisibWave heightAir tempDewpointWater temp
2014-Dec-20 11:13N 36°38' E 023°37'913.9
2014-Dec-20 10:34N 36°45' E 023°44'1413.9
2014-Dec-20 09:33N 36°57' E 023°54'1414.2
2014-Dec-20 08:33N 37°09' E 024°04'1414.1
2014-Dec-20 07:33N 37°21' E 024°13'1414.1
2014-Dec-20 06:33N 37°32' E 024°23'1514.4
2014-Dec-20 05:32N 37°45' E 024°32'2914.5
2014-Dec-20 03:33N 38°12' E 024°45'6314.4
2014-Dec-19 23:10N 39°08' E 025°21'3014.6
2014-Dec-19 21:05N 39°36' E 025°38'814.3
2014-Dec-19 20:33N 39°43' E 025°42'1513.9
2014-Dec-19 19:29N 39°56' E 025°53'4013.4
2014-Dec-19 16:28N 40°19' E 026°36'1111.3
2014-Dec-19 15:29N 40°26' E 026°46'86 6.0
2014-Dec-19 01:08N 40°52' E 028°35'814.1
2014-Dec-19 00:32N 40°53' E 028°46'1110.9
2014-Dec-18 23:33N 40°58' E 028°59'1111.0
2014-Dec-18 22:33N 41°09' E 029°04'9 9.2
2014-Dec-18 21:33N 41°17' E 029°08'7 7.4
2014-Dec-18 20:33N 41°24' E 029°07'1 0.6
2014-Dec-18 19:23N 41°25' E 029°07'30910.7
2014-Dec-17 14:33N 46°24' E 030°55'9 0.4
2014-Dec-16 13:11N 46°33' E 030°60'2 0.1
2014-Dec-15 20:28N 46°32' E 030°59'0 0.5
2014-Dec-15 19:33N 46°32' E 030°59'1010.5
2014-Dec-15 18:33N 46°22' E 030°57'1514.3
2014-Dec-15 17:31N 46°09' E 031°08'1414.8
2014-Dec-15 16:33N 45°55' E 031°11'27614.5
2014-Dec-14 21:33N 41°30' E 029°21'1515.2
2014-Dec-14 20:33N 41°17' E 029°11'  
2014-Dec-12 06:23N 37°55' E 025°36'1315.4
2014-Dec-12 05:33N 37°43' E 025°42'1615.9
2014-Dec-12 04:33N 37°28' E 025°50'1515.1
2014-Dec-12 03:33N 37°19' E 026°05'1414.0
2014-Dec-12 02:33N 37°11' E 026°20'1615.6
2014-Dec-12 01:32N 37°03' E 026°37'1715.9
2014-Dec-12 00:28N 36°47' E 026°42'1516.0
2014-Dec-11 23:31N 36°32' E 026°48'1615.9
2014-Dec-11 22:33N 36°19' E 026°57'25614.7
2014-Dec-11 05:06N 35°48' E 032°12'  

Dump ship's entire track history